Time;durP1;ratioP1;P1;durP2;ratioP2;P2;SDS_P1;SDS_P2;PMS_P1;PMS_P2;Temp;Humidity;BMP_temperature;BMP_pressure;BME280_temperature;BME280_humidity;BME280_pressure;Samples;Min_cycle;Max_cycle;Signal;HPM_P1;HPM_P2
2022/08/16 00:00:16;;;;;;;41.50;28.38;;;20.20;99.90;;;;;;5073319;28;20067;-68
2022/08/16 00:02:42;;;;;;;37.03;27.33;;;20.20;99.90;;;;;;5073047;28;20016;-71
2022/08/16 00:05:09;;;;;;;39.17;26.70;;;20.20;99.90;;;;;;5073013;28;20133;-68
2022/08/16 00:07:36;;;;;;;38.95;27.38;;;20.20;99.90;;;;;;5073498;28;20066;-70
2022/08/16 00:10:06;;;;;;;37.20;26.55;;;20.10;99.90;;;;;;5073218;28;20063;-68
2022/08/16 00:12:32;;;;;;;35.40;26.35;;;20.10;99.90;;;;;;5073187;28;20024;-72
2022/08/16 00:15:00;;;;;;;36.05;25.98;;;20.20;99.90;;;;;;5073063;28;20032;-69
2022/08/16 00:17:26;;;;;;;34.42;23.42;;;20.20;99.90;;;;;;5072890;28;20031;-68
2022/08/16 00:19:53;;;;;;;35.53;24.15;;;20.20;99.90;;;;;;5072823;28;20032;-68
2022/08/16 00:22:18;;;;;;;34.97;25.35;;;20.20;99.90;;;;;;5072874;28;20052;-69
2022/08/16 00:24:44;;;;;;;35.53;23.45;;;20.20;99.90;;;;;;5071647;28;20528;-68
2022/08/16 00:27:10;;;;;;;34.90;25.52;;;20.20;99.90;;;;;;5073098;28;20016;-68
2022/08/16 00:29:36;;;;;;;33.15;23.55;;;20.20;99.90;;;;;;5072616;28;20021;-73
2022/08/16 00:32:04;;;;;;;37.22;26.67;;;20.20;99.90;;;;;;5072697;28;20054;-70
2022/08/16 00:34:31;;;;;;;34.67;24.85;;;20.20;99.90;;;;;;5072842;28;20022;-68
2022/08/16 00:36:56;;;;;;;33.17;23.33;;;20.20;99.90;;;;;;5072836;28;20028;-68
2022/08/16 00:39:22;;;;;;;33.45;22.92;;;20.20;99.90;;;;;;5072141;28;20089;-68
2022/08/16 00:41:49;;;;;;;32.78;22.38;;;20.20;99.90;;;;;;5073067;28;20033;-70
2022/08/16 00:44:18;;;;;;;34.22;23.70;;;20.20;99.90;;;;;;5072463;28;20020;-68
2022/08/16 00:46:51;;;;;;;35.30;24.27;;;20.20;99.90;;;;;;5072667;28;20074;-68
2022/08/16 00:49:16;;;;;;;34.80;24.83;;;20.20;99.90;;;;;;5071579;28;20021;-68
2022/08/16 00:51:42;;;;;;;34.10;24.77;;;20.20;99.90;;;;;;5071369;28;20119;-68
2022/08/16 00:54:09;;;;;;;33.10;25.17;;;20.20;99.90;;;;;;5072537;28;20017;-70
2022/08/16 00:56:39;;;;;;;32.70;24.17;;;20.20;99.90;;;;;;5072684;28;20017;-68
2022/08/16 00:59:08;;;;;;;35.83;24.88;;;20.20;99.90;;;;;;5072457;28;20053;-72
2022/08/16 01:01:34;;;;;;;34.63;25.00;;;20.20;99.90;;;;;;5072154;28;20029;-68
2022/08/16 01:04:00;;;;;;;35.50;24.92;;;20.20;99.90;;;;;;5072422;28;20086;-69
2022/08/16 01:06:27;;;;;;;38.33;25.73;;;20.20;99.90;;;;;;5072621;28;20438;-68
2022/08/16 01:08:54;;;;;;;36.50;26.17;;;20.20;99.90;;;;;;5072665;28;20059;-68
2022/08/16 01:11:22;;;;;;;36.63;25.02;;;20.20;99.90;;;;;;5072277;28;20085;-68
2022/08/16 01:13:51;;;;;;;33.95;24.23;;;20.20;99.90;;;;;;5072473;28;20021;-68
2022/08/16 01:16:21;;;;;;;33.60;24.98;;;20.30;99.90;;;;;;5072587;28;20469;-68
2022/08/16 01:18:56;;;;;;;36.10;26.27;;;20.30;99.90;;;;;;5072432;28;20028;-68
2022/08/16 01:21:30;;;;;;;34.75;25.30;;;20.30;99.90;;;;;;5072122;28;20021;-68
2022/08/16 01:24:26;;;;;;;33.55;25.13;;;20.30;99.90;;;;;;5072367;28;20016;-68
2022/08/16 01:26:58;;;;;;;34.75;26.40;;;20.30;99.90;;;;;;5072243;28;20170;-68
2022/08/16 01:29:33;;;;;;;35.00;25.02;;;20.20;99.90;;;;;;5070942;28;20453;-72
2022/08/16 01:32:00;;;;;;;35.80;25.88;;;20.30;99.90;;;;;;5072393;28;20024;-67
2022/08/16 01:34:25;;;;;;;35.80;22.60;;;20.20;99.90;;;;;;5072433;28;20032;-72
2022/08/16 01:37:00;;;;;;;36.90;25.50;;;20.20;99.90;;;;;;5072356;28;20021;-68
2022/08/16 01:39:25;;;;;;;39.85;26.65;;;20.20;99.90;;;;;;5072267;28;20033;-68
2022/08/16 01:41:51;;;;;;;35.45;24.90;;;20.20;99.90;;;;;;5072495;28;20024;-68
2022/08/16 01:44:17;;;;;;;40.53;26.20;;;20.20;99.90;;;;;;5070830;28;20044;-68
2022/08/16 01:46:45;;;;;;;36.35;26.02;;;20.20;99.90;;;;;;5067639;28;20021;-68
2022/08/16 01:49:12;;;;;;;37.60;26.27;;;20.20;99.90;;;;;;5050902;28;20447;-70
2022/08/16 01:51:42;;;;;;;37.33;26.05;;;20.10;99.90;;;;;;5055713;28;20098;-73
2022/08/16 01:54:07;;;;;;;41.65;28.00;;;20.10;99.90;;;;;;5055863;28;20055;-67
2022/08/16 01:56:33;;;;;;;39.55;28.55;;;20.10;99.90;;;;;;5055847;28;20053;-70
2022/08/16 01:59:03;;;;;;;37.60;27.92;;;20.10;99.90;;;;;;5055273;28;20049;-68
2022/08/16 02:01:29;;;;;;;38.33;28.88;;;20.10;99.90;;;;;;5056043;28;20048;-68
2022/08/16 02:03:56;;;;;;;43.22;27.90;;;20.10;99.90;;;;;;5055700;28;20035;-73
2022/08/16 02:06:21;;;;;;;42.75;28.27;;;20.00;99.90;;;;;;5055445;28;20025;-68
2022/08/16 02:08:47;;;;;;;40.10;28.23;;;20.00;99.90;;;;;;5055690;28;20335;-68
2022/08/16 02:11:13;;;;;;;42.45;29.75;;;20.00;99.90;;;;;;5055321;28;20029;-68
2022/08/16 02:13:42;;;;;;;43.78;28.88;;;20.00;99.90;;;;;;5055313;28;20508;-68
2022/08/16 02:16:09;;;;;;;43.58;30.45;;;19.90;99.90;;;;;;5055479;28;20024;-67
2022/08/16 02:18:35;;;;;;;40.55;29.17;;;19.90;99.90;;;;;;5055753;28;20112;-68
2022/08/16 02:21:03;;;;;;;45.70;32.22;;;19.90;99.90;;;;;;5055301;28;20104;-71
2022/08/16 02:23:28;;;;;;;44.72;32.05;;;19.80;99.90;;;;;;5055561;28;20100;-72
2022/08/16 02:25:54;;;;;;;44.13;30.80;;;19.80;99.90;;;;;;5055222;28;20498;-70
2022/08/16 02:28:23;;;;;;;43.63;30.15;;;19.80;99.90;;;;;;5054856;28;20059;-73
2022/08/16 02:30:48;;;;;;;44.38;30.17;;;19.70;99.90;;;;;;5055565;28;20614;-68
2022/08/16 02:33:14;;;;;;;43.75;30.85;;;19.70;99.90;;;;;;5055523;28;20063;-68
2022/08/16 02:35:39;;;;;;;44.78;30.33;;;19.70;99.90;;;;;;5055086;28;20082;-71
2022/08/16 02:38:05;;;;;;;50.38;34.70;;;19.70;99.90;;;;;;5055218;28;20082;-68
2022/08/16 02:40:31;;;;;;;45.08;30.15;;;19.70;99.90;;;;;;5054867;28;20040;-68
2022/08/16 02:42:57;;;;;;;50.80;33.40;;;19.70;99.90;;;;;;5054681;28;20021;-72
2022/08/16 02:45:25;;;;;;;48.42;32.67;;;19.70;99.90;;;;;;5070495;28;20029;-68
2022/08/16 02:47:52;;;;;;;50.30;32.58;;;19.70;99.90;;;;;;5073422;28;20021;-68
2022/08/16 02:50:17;;;;;;;49.45;34.25;;;19.70;99.90;;;;;;5074882;28;20016;-68
2022/08/16 02:52:43;;;;;;;50.15;32.72;;;19.70;99.90;;;;;;5074972;28;20027;-71
2022/08/16 02:55:09;;;;;;;50.28;34.25;;;19.70;99.90;;;;;;5074772;28;20406;-68
2022/08/16 02:57:34;;;;;;;49.30;34.25;;;19.70;99.90;;;;;;5073905;28;20029;-71
2022/08/16 03:00:07;;;;;;;48.97;32.80;;;19.70;99.90;;;;;;5074377;28;20028;-67
2022/08/16 03:02:35;;;;;;;49.92;33.92;;;19.60;99.90;;;;;;5073200;28;20497;-68
2022/08/16 03:05:01;;;;;;;50.60;34.17;;;19.60;99.90;;;;;;5074498;28;20017;-71
2022/08/16 03:07:26;;;;;;;50.58;34.58;;;19.60;99.90;;;;;;5074541;28;20112;-68
2022/08/16 03:09:52;;;;;;;47.28;34.92;;;19.60;99.90;;;;;;5074594;28;20357;-72
2022/08/16 03:12:18;;;;;;;52.53;35.90;;;19.60;99.90;;;;;;5074355;28;20075;-68
2022/08/16 03:14:45;;;;;;;55.92;38.30;;;19.60;99.90;;;;;;5074027;28;20446;-73
2022/08/16 03:17:11;;;;;;;50.80;35.22;;;19.60;99.90;;;;;;5074456;28;20019;-67
2022/08/16 03:19:36;;;;;;;52.72;36.38;;;19.60;99.90;;;;;;5073821;28;20029;-68
2022/08/16 03:22:02;;;;;;;56.20;38.13;;;19.60;99.90;;;;;;5072622;28;20104;-71
2022/08/16 03:24:28;;;;;;;57.22;34.97;;;19.50;99.90;;;;;;5072376;28;20025;-71
2022/08/16 03:26:58;;;;;;;53.47;36.45;;;19.50;99.90;;;;;;5072207;28;20088;-72
2022/08/16 03:29:28;;;;;;;56.58;37.25;;;19.40;99.90;;;;;;5072674;28;20097;-68
2022/08/16 03:31:54;;;;;;;54.97;37.83;;;19.40;99.90;;;;;;5073512;28;20115;-72
2022/08/16 03:34:20;;;;;;;56.72;37.55;;;19.40;99.90;;;;;;5072047;28;20095;-68
2022/08/16 03:36:46;;;;;;;57.53;38.38;;;19.40;99.90;;;;;;5072091;28;20036;-70
2022/08/16 03:39:12;;;;;;;59.15;39.20;;;19.40;99.90;;;;;;5071447;28;20020;-72
2022/08/16 03:41:39;;;;;;;55.63;38.38;;;19.30;99.90;;;;;;5071036;28;20630;-67
2022/08/16 03:44:06;;;;;;;59.88;37.85;;;19.40;99.90;;;;;;5069497;28;20074;-71
2022/08/16 03:46:32;;;;;;;54.75;37.60;;;19.40;99.90;;;;;;5071682;28;20191;-67
2022/08/16 03:48:58;;;;;;;56.55;37.92;;;19.40;99.90;;;;;;5071538;28;20111;-66
2022/08/16 03:51:24;;;;;;;53.78;36.45;;;19.40;99.90;;;;;;5072106;28;20096;-69
2022/08/16 03:53:50;;;;;;;55.17;37.67;;;19.40;99.90;;;;;;5065095;28;20021;-69
2022/08/16 03:56:16;;;;;;;56.55;37.38;;;19.40;99.90;;;;;;5071204;28;20028;-67
2022/08/16 03:58:42;;;;;;;57.58;38.30;;;19.30;99.90;;;;;;5071225;28;20508;-69
2022/08/16 04:01:08;;;;;;;54.63;35.65;;;19.30;99.90;;;;;;5071810;28;20028;-67
2022/08/16 04:03:33;;;;;;;51.90;36.75;;;19.30;99.90;;;;;;5069969;28;20047;-67
2022/08/16 04:05:59;;;;;;;55.95;37.45;;;19.30;99.90;;;;;;5071699;28;20047;-67
2022/08/16 04:08:25;;;;;;;53.90;36.65;;;19.30;99.90;;;;;;5071075;28;20025;-65
2022/08/16 04:10:52;;;;;;;53.90;38.28;;;19.30;99.90;;;;;;5070206;28;20017;-67
2022/08/16 04:13:19;;;;;;;55.25;38.22;;;19.30;99.90;;;;;;5069073;28;20344;-66
2022/08/16 04:15:44;;;;;;;55.15;37.38;;;19.20;99.90;;;;;;5071425;28;20462;-66
2022/08/16 04:18:12;;;;;;;55.50;36.25;;;19.20;99.90;;;;;;5071617;28;20036;-69
2022/08/16 04:20:38;;;;;;;53.78;35.42;;;19.20;99.90;;;;;;5069420;28;20040;-67
2022/08/16 04:23:04;;;;;;;53.05;36.28;;;19.20;99.90;;;;;;5070631;28;20026;-67
2022/08/16 04:25:29;;;;;;;57.60;37.35;;;19.20;99.90;;;;;;5070862;28;20021;-67
2022/08/16 04:27:55;;;;;;;54.67;36.40;;;19.20;99.90;;;;;;5071550;28;20473;-68
2022/08/16 04:30:21;;;;;;;52.75;35.13;;;19.10;99.90;;;;;;5077092;28;20077;-69
2022/08/16 04:32:47;;;;;;;50.92;34.50;;;19.10;99.90;;;;;;5070674;28;20127;-68
2022/08/16 04:35:16;;;;;;;53.35;35.63;;;19.10;99.90;;;;;;5072553;28;20024;-69
2022/08/16 04:37:45;;;;;;;53.38;33.88;;;19.20;99.90;;;;;;5072754;28;20505;-70
2022/08/16 04:40:11;;;;;;;47.65;33.30;;;19.10;99.90;;;;;;5072685;28;20036;-73
2022/08/16 04:42:39;;;;;;;50.83;37.05;;;19.10;99.90;;;;;;5072304;28;20024;-71
2022/08/16 04:45:06;;;;;;;51.03;35.63;;;19.10;99.90;;;;;;5072710;28;20028;-68
2022/08/16 04:47:33;;;;;;;50.08;35.10;;;19.20;99.90;;;;;;5065850;28;20020;-68
2022/08/16 04:50:01;;;;;;;54.42;37.15;;;19.20;99.90;;;;;;5072927;28;20016;-68
2022/08/16 04:52:27;;;;;;;51.90;35.55;;;19.20;99.90;;;;;;5072726;28;20020;-68
2022/08/16 04:54:53;;;;;;;47.88;33.45;;;19.20;99.90;;;;;;5072745;28;20080;-71
2022/08/16 04:57:18;;;;;;;51.53;34.90;;;19.30;99.90;;;;;;5072979;28;20051;-68
2022/08/16 04:59:44;;;;;;;46.28;28.00;;;19.30;99.90;;;;;;5073539;28;20052;-68
2022/08/16 05:02:09;;;;;;;47.40;32.00;;;19.30;99.90;;;;;;5073075;28;20036;-68
2022/08/16 05:04:36;;;;;;;46.97;33.20;;;19.30;99.90;;;;;;5072888;28;20062;-66
2022/08/16 05:07:02;;;;;;;49.53;33.95;;;19.30;99.90;;;;;;5072898;28;20024;-68
2022/08/16 05:09:27;;;;;;;47.78;32.05;;;19.30;99.90;;;;;;5073034;28;20024;-68
2022/08/16 05:11:54;;;;;;;46.78;30.33;;;19.40;99.90;;;;;;5071736;28;20358;-69
2022/08/16 05:14:19;;;;;;;41.80;27.17;;;19.40;99.90;;;;;;5072782;28;20438;-71
2022/08/16 05:16:45;;;;;;;47.63;33.25;;;19.40;99.90;;;;;;5072852;28;20016;-69
2022/08/16 05:19:11;;;;;;;44.60;30.73;;;19.40;99.90;;;;;;5072545;28;20032;-67
2022/08/16 05:21:37;;;;;;;44.08;31.25;;;19.50;99.90;;;;;;5072344;28;20111;-71
2022/08/16 05:24:04;;;;;;;43.35;29.02;;;19.50;99.90;;;;;;5077357;28;20017;-68
2022/08/16 05:26:31;;;;;;;45.50;32.65;;;19.60;99.90;;;;;;5079838;28;20028;-68
2022/08/16 05:28:58;;;;;;;45.13;32.05;;;19.80;99.90;;;;;;5077219;28;20032;-73
2022/08/16 05:31:28;;;;;;;45.47;30.92;;;19.80;99.90;;;;;;5077992;28;20021;-68
2022/08/16 05:33:54;;;;;;;44.22;31.92;;;19.90;99.90;;;;;;5077292;28;20025;-68
2022/08/16 05:36:20;;;;;;;44.67;30.55;;;20.00;99.90;;;;;;5077764;28;20094;-69
2022/08/16 05:38:46;;;;;;;44.28;31.27;;;20.10;99.90;;;;;;5078171;28;20170;-71
2022/08/16 05:41:12;;;;;;;42.13;28.73;;;20.20;99.90;;;;;;5078250;28;20570;-68
2022/08/16 05:43:38;;;;;;;42.10;28.05;;;20.30;99.90;;;;;;5077959;28;20047;-66
2022/08/16 05:46:03;;;;;;;46.42;31.35;;;20.40;99.90;;;;;;5077626;28;20028;-69
2022/08/16 05:48:30;;;;;;;41.05;28.52;;;20.50;99.90;;;;;;5077222;28;20017;-67
2022/08/16 05:50:56;;;;;;;44.15;30.27;;;20.70;99.90;;;;;;5077255;28;20078;-71
2022/08/16 05:53:22;;;;;;;43.53;29.13;;;20.80;99.90;;;;;;5077500;28;20024;-73
2022/08/16 05:55:48;;;;;;;44.53;29.95;;;21.00;99.90;;;;;;5076489;28;20434;-68
2022/08/16 05:58:13;;;;;;;42.17;28.85;;;21.10;99.90;;;;;;5075941;28;20370;-68
2022/08/16 06:00:39;;;;;;;41.92;29.67;;;21.20;99.90;;;;;;5075816;28;20028;-68
2022/08/16 06:03:04;;;;;;;38.85;28.20;;;21.30;99.90;;;;;;5075688;28;20031;-67
2022/08/16 06:05:30;;;;;;;38.95;26.85;;;21.40;99.90;;;;;;5076137;28;20025;-68
2022/08/16 06:07:56;;;;;;;39.20;27.65;;;21.40;99.90;;;;;;5074889;28;20127;-70
2022/08/16 06:10:21;;;;;;;40.42;29.17;;;21.50;99.90;;;;;;5076632;28;20074;-71
2022/08/16 06:12:47;;;;;;;39.05;27.15;;;21.50;99.90;;;;;;5076063;28;20020;-70
2022/08/16 06:15:16;;;;;;;42.40;29.27;;;21.70;99.90;;;;;;5076783;28;20032;-69
2022/08/16 06:17:42;;;;;;;39.47;25.23;;;21.70;99.90;;;;;;5076375;28;20032;-68
2022/08/16 06:20:10;;;;;;;38.75;26.25;;;21.80;99.90;;;;;;5076284;28;20067;-68
2022/08/16 06:22:37;;;;;;;40.20;27.77;;;21.90;99.90;;;;;;5074713;28;20099;-72
2022/08/16 06:25:03;;;;;;;39.67;27.33;;;21.90;99.90;;;;;;5074734;28;20016;-67
2022/08/16 06:27:29;;;;;;;37.80;27.42;;;21.90;99.90;;;;;;5074588;28;20096;-68
2022/08/16 06:29:54;;;;;;;41.00;28.00;;;22.10;99.90;;;;;;5072979;28;20119;-69
2022/08/16 06:32:20;;;;;;;42.75;28.80;;;22.10;99.90;;;;;;5075434;28;20354;-70
2022/08/16 06:34:46;;;;;;;38.53;28.38;;;22.10;99.90;;;;;;5075058;28;20025;-67
2022/08/16 06:37:11;;;;;;;38.13;28.13;;;22.30;99.90;;;;;;5074820;28;20032;-68
2022/08/16 06:39:38;;;;;;;41.47;27.52;;;22.50;99.90;;;;;;5074243;28;20032;-68
2022/08/16 06:42:04;;;;;;;39.97;27.98;;;22.80;99.90;;;;;;5075631;28;20020;-70
2022/08/16 06:44:30;;;;;;;38.10;25.13;;;23.10;99.90;;;;;;5075584;28;20020;-67
2022/08/16 06:46:55;;;;;;;37.10;24.95;;;23.60;99.90;;;;;;5075978;28;20025;-67
2022/08/16 06:49:21;;;;;;;36.53;26.48;;;24.00;99.90;;;;;;5076352;28;20045;-68
2022/08/16 06:51:47;;;;;;;35.90;24.00;;;24.40;99.90;;;;;;5074996;28;20103;-66
2022/08/16 06:54:12;;;;;;;36.05;25.58;;;24.50;99.90;;;;;;5073876;28;20064;-67
2022/08/16 06:56:38;;;;;;;34.88;25.60;;;24.50;99.90;;;;;;5074814;28;20052;-70
2022/08/16 06:59:04;;;;;;;35.13;26.20;;;24.50;99.90;;;;;;5074708;28;20147;-70
2022/08/16 07:01:29;;;;;;;39.58;27.35;;;24.40;99.90;;;;;;5074481;28;20120;-67
2022/08/16 07:03:55;;;;;;;39.03;25.88;;;24.40;99.90;;;;;;5074594;28;20021;-67
2022/08/16 07:06:21;;;;;;;37.42;25.45;;;24.40;99.90;;;;;;5074313;28;20024;-67
2022/08/16 07:08:47;;;;;;;33.45;24.80;;;24.40;99.90;;;;;;5074783;28;20406;-70
2022/08/16 07:11:14;;;;;;;34.97;25.05;;;24.40;99.90;;;;;;5072278;28;20020;-67
2022/08/16 07:13:40;;;;;;;35.65;23.65;;;24.50;99.90;;;;;;5053991;28;20017;-67
2022/08/16 07:16:13;;;;;;;34.28;23.02;;;24.60;99.90;;;;;;5054387;28;20532;-70
2022/08/16 07:18:44;;;;;;;35.17;23.20;;;24.70;99.90;;;;;;5053998;28;20113;-69
2022/08/16 07:21:12;;;;;;;34.00;22.58;;;24.90;99.90;;;;;;5057835;28;20483;-69
2022/08/16 07:23:40;;;;;;;32.10;21.65;;;25.10;99.90;;;;;;5071053;28;20024;-69
2022/08/16 07:26:09;;;;;;;30.60;21.88;;;25.30;99.90;;;;;;5074263;28;20101;-67
2022/08/16 07:28:35;;;;;;;31.17;20.65;;;25.50;99.90;;;;;;5074111;28;20020;-66
2022/08/16 07:31:01;;;;;;;32.50;21.52;;;25.70;99.90;;;;;;5073949;28;20028;-66
2022/08/16 07:33:29;;;;;;;31.75;20.05;;;25.80;99.90;;;;;;5074285;28;20021;-66
2022/08/16 07:35:55;;;;;;;31.70;21.48;;;26.00;99.90;;;;;;5074053;28;20025;-67
2022/08/16 07:38:20;;;;;;;32.08;20.75;;;26.00;99.90;;;;;;5074096;28;20028;-68
2022/08/16 07:40:46;;;;;;;37.47;21.85;;;26.00;99.90;;;;;;5073284;28;20081;-67
2022/08/16 07:43:11;;;;;;;29.75;21.38;;;26.00;99.90;;;;;;5072609;28;20032;-66
2022/08/16 07:45:37;;;;;;;35.25;21.23;;;26.00;99.90;;;;;;5072556;28;20070;-67
2022/08/16 07:48:03;;;;;;;29.80;18.33;;;26.10;99.90;;;;;;5071971;28;20025;-66
2022/08/16 07:50:28;;;;;;;30.10;21.42;;;26.10;99.90;;;;;;5072826;28;20033;-66
2022/08/16 07:52:54;;;;;;;29.95;20.00;;;26.00;99.90;;;;;;5073067;28;20036;-66
2022/08/16 07:55:20;;;;;;;32.50;21.40;;;25.90;99.90;;;;;;5057366;28;20021;-71
2022/08/16 07:57:45;;;;;;;28.52;21.42;;;26.00;99.90;;;;;;5072673;28;20033;-70
2022/08/16 08:00:12;;;;;;;29.77;20.63;;;26.20;99.90;;;;;;5072494;28;20063;-67
2022/08/16 08:02:38;;;;;;;30.00;20.27;;;26.60;99.90;;;;;;5072537;28;20470;-68
2022/08/16 08:05:04;;;;;;;30.95;21.95;;;27.10;99.90;;;;;;5073551;28;20067;-69
2022/08/16 08:07:30;;;;;;;28.02;19.65;;;27.50;99.90;;;;;;5072249;28;20020;-69
2022/08/16 08:09:56;;;;;;;30.60;20.45;;;27.70;99.90;;;;;;5072258;28;20044;-70
2022/08/16 08:12:22;;;;;;;30.85;18.88;;;28.00;99.90;;;;;;5069409;28;20024;-69
2022/08/16 08:14:48;;;;;;;27.00;17.67;;;28.40;99.90;;;;;;5073423;28;20067;-68
2022/08/16 08:17:14;;;;;;;29.02;18.15;;;28.80;99.90;;;;;;5072598;28;20032;-73
2022/08/16 08:19:40;;;;;;;28.23;17.98;;;29.50;99.90;;;;;;5073674;28;20085;-69
2022/08/16 08:22:08;;;;;;;24.85;16.67;;;30.20;99.90;;;;;;5073281;28;20462;-69
2022/08/16 08:24:36;;;;;;;27.83;16.63;;;30.90;98.80;;;;;;5072628;28;20013;-67
2022/08/16 08:27:03;;;;;;;28.23;15.50;;;31.70;97.70;;;;;;5072811;28;20017;-69
2022/08/16 08:29:30;;;;;;;21.42;14.82;;;32.50;96.70;;;;;;5073165;28;20040;-66
2022/08/16 08:31:55;;;;;;;19.08;13.20;;;33.20;95.20;;;;;;5072690;28;20099;-69
2022/08/16 08:34:21;;;;;;;19.73;13.40;;;33.70;93.40;;;;;;5072735;28;20092;-69
2022/08/16 08:36:50;;;;;;;21.70;12.43;;;33.90;92.90;;;;;;5064105;28;20063;-67
2022/08/16 08:39:15;;;;;;;20.92;13.82;;;33.80;92.30;;;;;;5059120;28;20786;-67
2022/08/16 08:41:43;;;;;;;21.27;12.75;;;33.70;92.80;;;;;;5067427;28;20062;-70
2022/08/16 08:44:12;;;;;;;22.90;13.55;;;33.90;92.30;;;;;;5067987;28;20131;-68
2022/08/16 08:46:38;;;;;;;18.38;12.00;;;34.10;91.70;;;;;;5072425;28;20024;-67
2022/08/16 08:49:06;;;;;;;18.02;10.63;;;34.30;91.80;;;;;;5071695;28;20040;-67
2022/08/16 08:51:33;;;;;;;18.45;10.60;;;34.50;90.80;;;;;;5052984;28;20013;-67
2022/08/16 08:53:58;;;;;;;21.92;11.05;;;34.60;90.50;;;;;;5051951;28;20029;-69
2022/08/16 08:56:24;;;;;;;15.32;10.40;;;34.70;90.20;;;;;;5052954;28;20040;-67
2022/08/16 08:58:50;;;;;;;19.98;11.27;;;34.90;89.80;;;;;;5068710;28;20131;-68
2022/08/16 09:01:21;;;;;;;18.10;10.77;;;34.90;90.00;;;;;;5071192;28;20096;-69
2022/08/16 09:03:47;;;;;;;19.67;11.30;;;34.70;89.70;;;;;;5070363;28;20021;-67
2022/08/16 09:06:12;;;;;;;18.73;11.23;;;34.40;90.20;;;;;;5071322;28;20393;-67
2022/08/16 09:08:38;;;;;;;17.95;9.88;;;34.40;90.10;;;;;;5072054;28;20021;-67
2022/08/16 09:11:04;;;;;;;17.98;10.45;;;34.40;89.80;;;;;;5071420;28;20028;-67
2022/08/16 09:13:31;;;;;;;15.85;9.52;;;34.10;90.20;;;;;;5071973;28;20451;-67
2022/08/16 09:15:57;;;;;;;18.33;10.43;;;33.70;90.30;;;;;;5070559;28;20063;-67
2022/08/16 09:18:23;;;;;;;17.20;9.63;;;33.70;90.60;;;;;;5071983;28;20052;-67
2022/08/16 09:20:52;;;;;;;15.70;9.07;;;34.10;90.30;;;;;;5070821;28;20051;-67
2022/08/16 09:23:19;;;;;;;16.63;9.43;;;34.60;89.40;;;;;;5072264;28;20025;-70
2022/08/16 09:25:45;;;;;;;16.33;8.55;;;34.80;88.40;;;;;;5071607;28;20241;-69
2022/08/16 09:28:11;;;;;;;15.60;8.63;;;34.70;87.80;;;;;;5072931;28;20055;-67
2022/08/16 09:30:37;;;;;;;17.10;9.98;;;34.10;88.20;;;;;;5071541;28;20075;-68
2022/08/16 09:33:05;;;;;;;15.50;9.43;;;33.40;90.30;;;;;;5072650;28;20021;-68
2022/08/16 09:35:31;;;;;;;20.27;9.80;;;32.90;90.90;;;;;;5070964;28;20366;-69
2022/08/16 09:37:56;;;;;;;17.55;9.80;;;32.90;91.40;;;;;;5072446;28;20029;-71
2022/08/16 09:40:22;;;;;;;17.60;10.07;;;32.80;91.50;;;;;;5071534;28;20020;-69
2022/08/16 09:42:48;;;;;;;15.77;10.13;;;32.40;91.80;;;;;;5071427;28;20025;-67
2022/08/16 09:45:15;;;;;;;20.40;10.68;;;31.90;92.50;;;;;;5071570;28;20020;-68
2022/08/16 09:47:41;;;;;;;21.17;10.80;;;31.40;93.20;;;;;;5072406;28;20112;-67
2022/08/16 09:50:09;;;;;;;17.98;10.90;;;30.90;93.90;;;;;;5071081;28;20044;-68
2022/08/16 09:52:36;;;;;;;18.13;10.70;;;30.30;94.90;;;;;;5072510;28;20343;-67
2022/08/16 09:55:03;;;;;;;16.27;10.70;;;30.10;95.60;;;;;;5069471;28;20494;-67
2022/08/16 09:57:29;;;;;;;17.33;11.20;;;30.20;95.40;;;;;;5071546;28;20056;-71
2022/08/16 09:59:55;;;;;;;20.15;11.02;;;30.50;95.40;;;;;;5071106;28;20147;-69
2022/08/16 10:02:20;;;;;;;16.80;10.43;;;31.20;94.90;;;;;;5069957;28;20033;-72
2022/08/16 10:04:46;;;;;;;17.05;9.75;;;31.50;94.00;;;;;;5070773;28;20127;-68
2022/08/16 10:07:11;;;;;;;17.17;9.98;;;31.60;93.90;;;;;;5071204;28;20449;-69
2022/08/16 10:09:37;;;;;;;18.30;10.50;;;31.80;93.60;;;;;;5071028;28;20146;-67
2022/08/16 10:14:47;;;;;;;16.58;9.45;;;32.30;93.40;;;;;;5073643;28;20058;-68
2022/08/16 10:17:12;;;;;;;15.68;9.23;;;32.30;92.50;;;;;;5071643;28;20060;-69
2022/08/16 10:19:38;;;;;;;16.58;10.00;;;32.20;92.50;;;;;;5075671;28;20420;-70
2022/08/16 10:22:04;;;;;;;18.55;10.43;;;32.00;92.70;;;;;;5073715;28;20495;-67
2022/08/16 10:24:29;;;;;;;17.08;9.75;;;32.00;92.90;;;;;;5074573;28;20038;-68
2022/08/16 10:26:56;;;;;;;15.40;9.35;;;32.00;92.90;;;;;;5073543;28;20362;-67
2022/08/16 10:29:23;;;;;;;17.85;9.85;;;32.10;93.10;;;;;;5055713;28;20136;-72
2022/08/16 10:31:48;;;;;;;17.02;9.48;;;32.30;92.70;;;;;;5072100;28;20108;-68
2022/08/16 10:34:14;;;;;;;16.38;9.35;;;32.40;92.40;;;;;;5074780;28;20542;-69
2022/08/16 10:36:39;;;;;;;14.02;8.07;;;32.50;92.30;;;;;;5073003;28;20036;-69
2022/08/16 10:39:06;;;;;;;14.13;9.60;;;32.50;92.10;;;;;;5075140;28;20089;-71
2022/08/16 10:41:32;;;;;;;16.88;9.73;;;32.20;92.30;;;;;;5074344;28;20109;-68
2022/08/16 10:43:58;;;;;;;16.67;9.40;;;32.00;92.60;;;;;;5072871;28;20369;-68
2022/08/16 10:46:25;;;;;;;17.38;9.15;;;32.00;92.40;;;;;;5074105;28;20438;-70
2022/08/16 10:48:51;;;;;;;17.40;9.95;;;31.90;92.60;;;;;;5074171;28;20096;-68
2022/08/16 10:51:17;;;;;;;17.50;10.65;;;31.90;92.80;;;;;;5075208;28;20103;-69
2022/08/16 10:53:43;;;;;;;17.45;9.77;;;31.80;92.80;;;;;;5073144;28;20025;-71
2022/08/16 10:56:11;;;;;;;17.02;10.25;;;31.90;93.20;;;;;;5075073;28;20012;-68
2022/08/16 10:58:39;;;;;;;15.73;10.10;;;32.20;92.80;;;;;;5074622;28;20076;-70
2022/08/16 11:01:07;;;;;;;17.85;10.48;;;32.40;92.60;;;;;;5074856;28;20019;-71
2022/08/16 11:03:33;;;;;;;16.45;10.60;;;32.40;92.30;;;;;;5074954;28;20462;-68
2022/08/16 11:06:00;;;;;;;16.10;9.70;;;32.20;92.30;;;;;;5075030;28;20107;-67
2022/08/16 11:08:25;;;;;;;17.98;10.07;;;32.30;92.20;;;;;;5074955;28;20032;-73
2022/08/16 11:10:51;;;;;;;16.50;10.27;;;32.70;91.80;;;;;;5074852;28;20036;-69
2022/08/16 11:13:20;;;;;;;16.92;9.95;;;33.20;91.20;;;;;;5074457;28;20036;-68
2022/08/16 11:15:46;;;;;;;17.95;10.05;;;33.40;91.10;;;;;;5074644;28;20391;-68
2022/08/16 11:18:12;;;;;;;19.35;11.27;;;33.40;90.60;;;;;;5074867;28;20067;-69
2022/08/16 11:20:39;;;;;;;14.30;9.73;;;33.40;91.00;;;;;;5074620;28;20046;-68
2022/08/16 11:23:05;;;;;;;15.82;9.75;;;33.20;90.70;;;;;;5072906;28;20052;-66
2022/08/16 11:25:31;;;;;;;17.90;10.02;;;33.10;90.10;;;;;;5074170;28;20078;-67
2022/08/16 11:27:59;;;;;;;15.50;9.98;;;32.90;90.40;;;;;;5074379;28;20374;-66
2022/08/16 11:30:28;;;;;;;17.50;11.30;;;32.70;91.10;;;;;;5074255;28;20111;-71
2022/08/16 11:32:54;;;;;;;18.38;10.85;;;32.70;90.60;;;;;;5068653;28;20089;-71
2022/08/16 11:35:23;;;;;;;17.33;10.85;;;32.90;90.90;;;;;;5058771;28;20447;-69
2022/08/16 11:37:54;;;;;;;18.98;10.75;;;33.00;90.90;;;;;;5071148;28;20110;-70
2022/08/16 11:40:22;;;;;;;16.85;9.50;;;33.10;90.70;;;;;;5074015;28;20047;-68
2022/08/16 11:42:48;;;;;;;16.65;9.90;;;33.40;90.60;;;;;;5074000;28;20032;-68
2022/08/16 11:45:14;;;;;;;18.40;10.20;;;33.60;90.20;;;;;;5072612;28;20062;-71
2022/08/16 11:47:40;;;;;;;18.95;10.88;;;33.80;90.10;;;;;;5067477;28;20029;-68
2022/08/16 11:50:08;;;;;;;15.77;9.60;;;34.10;90.10;;;;;;5065111;28;20040;-67
2022/08/16 11:52:35;;;;;;;18.80;9.98;;;34.20;89.30;;;;;;5073453;28;20413;-72
2022/08/16 11:55:02;;;;;;;17.23;9.82;;;34.30;88.50;;;;;;5073263;28;20109;-67
2022/08/16 11:57:28;;;;;;;20.85;11.15;;;34.60;88.00;;;;;;5073867;28;20028;-67
2022/08/16 11:59:54;;;;;;;13.05;8.40;;;34.90;87.40;;;;;;5074010;28;20041;-71
2022/08/16 12:02:19;;;;;;;19.02;9.98;;;34.90;85.90;;;;;;5073038;28;20033;-69
2022/08/16 12:04:45;;;;;;;17.95;10.35;;;34.40;87.20;;;;;;5073157;28;20020;-67
2022/08/16 12:07:12;;;;;;;15.60;9.82;;;34.50;87.60;;;;;;5064710;28;20028;-69
2022/08/16 12:09:38;;;;;;;19.67;11.27;;;34.60;86.80;;;;;;5073040;28;20029;-67
2022/08/16 12:12:04;;;;;;;15.93;10.13;;;34.80;86.20;;;;;;5073712;28;20024;-71
2022/08/16 12:14:31;;;;;;;17.80;10.57;;;35.00;85.60;;;;;;5073110;28;20032;-68
2022/08/16 12:16:58;;;;;;;17.20;9.38;;;35.20;84.80;;;;;;5073304;28;20077;-72
2022/08/16 12:19:24;;;;;;;16.00;9.57;;;35.40;85.10;;;;;;5072537;28;20028;-70
2022/08/16 12:21:50;;;;;;;15.13;8.98;;;35.70;84.10;;;;;;5072120;28;20016;-67
2022/08/16 12:24:16;;;;;;;13.23;9.75;;;35.80;83.70;;;;;;5071739;28;20038;-67
2022/08/16 12:26:41;;;;;;;17.67;9.30;;;35.80;83.60;;;;;;5072244;28;20131;-70